Terminal Aerodrome Forecast
Issued by NWS Sterling, VA

Current Version | Previous Version | Text Only | Print | Product List | Glossary On
Versions: 1 2 3 4 5 6 7 8 9 10 11 12 13 14 15 16 17 18 19 20 21 22 23 24 25 26 27 28 29 30 31 32 33 34 35 36 37 38 39 40 41 42 43 44
116
FTUS41 KLWX 131728
TAFMRB
TAF
KMRB 131728Z 1318/1418 19005KT P6SM BKN100
     FM140600 00000KT 4SM BR BKN010
     FM141100 00000KT 3SM BR SCT008
     FM141300 00000KT 6SM BR SCT015
     FM141500 31004KT P6SM FEW200=

USA.gov is the U.S. government's official web portal to all federal, state and local government web resources and services.